Portada
METAR-TAF:

METAR-TAF

Aeroports :

Birmingham, Anglaterra

latitud: 52-27N, longitud: 001-44W, altitud: 99 m

Observació

L'informe es va fer fa 35 minuts, a les 21:50 UTC
Vent 4 kt del Sud
Temperatura 17°C
Humitat 72%
Pressió 1017 hPa
Visibilitat 10 km o més
sense núvols per sota de 1500 mi sense presència de cumulonimbus.

METAR: EGBB 242150Z 19004KT CAVOK 17/12 Q1017

Hora: 23:25 (22:25 UTC)

Pronòstic

L'informe es va fer fa 5 hores i 29 minuts, a les 16:56 UTC
Pronòstic vàlid del 24 a les 18 UTC al 25 a les 18 UTC
Vent 8 kt del Sud-Est
Visibilitat 10 km o més
Escasses núvols a una alçada de 4000 ft
Probabilitat 30% :
Temporalment
l' 25 a les 04 UTC al 25 a les 08 UTC
Visibilitat: 7000 m

TAF: EGBB 241656Z 2418/2518 13008KT 9999 FEW040 PROB30 TEMPO 2504/2508 7000

Observacions i pronòstics meteorològics de més de 4000 aeroports (METAR i TAF).

Les estacions disponibles són els punts grocs i vermells al mapa.

Posi el ratolí al punt desitjat per veure el nom de l'estació.

Feu clic per veure les observacions i els pronòstics meteorològics.

Per canviar el mapa: feu clic els botons verds amb una creu de color negre per apropar; al botó verd amb un guió per allunyar la imatge; o en les fletxes verdes per a mapes adjacents.


METAR-TAF: